sensor_id;sensor_type;location;lat;lon;timestamp;P1;durP1;ratioP1;P2;durP2;ratioP2
41635;SDS011;27623;51.966;4.602;2022-10-16T00:01:22;3.05;;;1.00;;
41635;SDS011;27623;51.966;4.602;2022-10-16T00:03:49;5.97;;;1.20;;
41635;SDS011;27623;51.966;4.602;2022-10-16T00:06:16;6.03;;;1.35;;
41635;SDS011;27623;51.966;4.602;2022-10-16T00:08:43;3.15;;;1.00;;
41635;SDS011;27623;51.966;4.602;2022-10-16T00:11:10;2.20;;;0.98;;
41635;SDS011;27623;51.966;4.602;2022-10-16T00:13:46;3.33;;;1.25;;
41635;SDS011;27623;51.966;4.602;2022-10-16T00:16:14;1.95;;;1.05;;
41635;SDS011;27623;51.966;4.602;2022-10-16T00:18:40;2.35;;;0.80;;
41635;SDS011;27623;51.966;4.602;2022-10-16T00:21:07;3.42;;;0.82;;
41635;SDS011;27623;51.966;4.602;2022-10-16T00:23:44;5.38;;;1.20;;
41635;SDS011;27623;51.966;4.602;2022-10-16T00:26:12;2.60;;;0.80;;
41635;SDS011;27623;51.966;4.602;2022-10-16T00:28:39;6.50;;;1.00;;
41635;SDS011;27623;51.966;4.602;2022-10-16T00:31:05;1.88;;;0.77;;
41635;SDS011;27623;51.966;4.602;2022-10-16T00:33:32;2.78;;;0.77;;
41635;SDS011;27623;51.966;4.602;2022-10-16T00:35:59;3.47;;;0.70;;
41635;SDS011;27623;51.966;4.602;2022-10-16T00:38:25;2.08;;;0.95;;
41635;SDS011;27623;51.966;4.602;2022-10-16T00:40:50;2.08;;;0.73;;
41635;SDS011;27623;51.966;4.602;2022-10-16T00:46:03;7.53;;;1.08;;
41635;SDS011;27623;51.966;4.602;2022-10-16T00:48:34;3.33;;;1.08;;
41635;SDS011;27623;51.966;4.602;2022-10-16T00:50:59;4.45;;;1.20;;
41635;SDS011;27623;51.966;4.602;2022-10-16T00:53:25;4.25;;;1.77;;
41635;SDS011;27623;51.966;4.602;2022-10-16T00:55:52;5.40;;;1.40;;
41635;SDS011;27623;51.966;4.602;2022-10-16T00:58:20;4.82;;;1.55;;
41635;SDS011;27623;51.966;4.602;2022-10-16T01:00:48;2.72;;;1.10;;
41635;SDS011;27623;51.966;4.602;2022-10-16T01:03:24;3.67;;;1.45;;
41635;SDS011;27623;51.966;4.602;2022-10-16T01:05:59;3.17;;;1.40;;
41635;SDS011;27623;51.966;4.602;2022-10-16T01:11:33;3.10;;;1.10;;
41635;SDS011;27623;51.966;4.602;2022-10-16T01:14:19;3.17;;;0.90;;
41635;SDS011;27623;51.966;4.602;2022-10-16T01:16:58;3.33;;;1.10;;
41635;SDS011;27623;51.966;4.602;2022-10-16T01:22:43;5.30;;;1.17;;
41635;SDS011;27623;51.966;4.602;2022-10-16T01:28:34;3.37;;;1.10;;
41635;SDS011;27623;51.966;4.602;2022-10-16T01:31:05;3.00;;;1.00;;
41635;SDS011;27623;51.966;4.602;2022-10-16T01:33:45;2.83;;;1.00;;
41635;SDS011;27623;51.966;4.602;2022-10-16T01:36:15;4.00;;;1.25;;
41635;SDS011;27623;51.966;4.602;2022-10-16T01:38:46;2.58;;;1.10;;
41635;SDS011;27623;51.966;4.602;2022-10-16T01:41:24;3.05;;;1.08;;
41635;SDS011;27623;51.966;4.602;2022-10-16T01:44:01;2.38;;;0.95;;
41635;SDS011;27623;51.966;4.602;2022-10-16T01:46:31;1.50;;;0.90;;
41635;SDS011;27623;51.966;4.602;2022-10-16T01:49:00;4.75;;;1.30;;
41635;SDS011;27623;51.966;4.602;2022-10-16T01:51:26;5.50;;;1.13;;
41635;SDS011;27623;51.966;4.602;2022-10-16T01:53:54;3.47;;;1.10;;
41635;SDS011;27623;51.966;4.602;2022-10-16T01:56:22;2.97;;;1.20;;
41635;SDS011;27623;51.966;4.602;2022-10-16T01:58:55;2.55;;;1.15;;
41635;SDS011;27623;51.966;4.602;2022-10-16T02:01:24;2.28;;;1.38;;
41635;SDS011;27623;51.966;4.602;2022-10-16T02:03:52;2.17;;;1.08;;
41635;SDS011;27623;51.966;4.602;2022-10-16T02:06:22;3.10;;;1.45;;
41635;SDS011;27623;51.966;4.602;2022-10-16T02:08:48;6.15;;;2.50;;
41635;SDS011;27623;51.966;4.602;2022-10-16T02:11:16;2.95;;;1.30;;
41635;SDS011;27623;51.966;4.602;2022-10-16T02:13:46;2.33;;;1.40;;
41635;SDS011;27623;51.966;4.602;2022-10-16T02:16:16;3.05;;;1.70;;
41635;SDS011;27623;51.966;4.602;2022-10-16T02:18:42;3.28;;;1.23;;
41635;SDS011;27623;51.966;4.602;2022-10-16T02:26:47;1.80;;;1.00;;
41635;SDS011;27623;51.966;4.602;2022-10-16T02:29:17;2.78;;;1.40;;
41635;SDS011;27623;51.966;4.602;2022-10-16T02:31:49;6.75;;;1.52;;
41635;SDS011;27623;51.966;4.602;2022-10-16T02:34:21;4.22;;;1.67;;
41635;SDS011;27623;51.966;4.602;2022-10-16T02:36:48;4.22;;;2.10;;
41635;SDS011;27623;51.966;4.602;2022-10-16T02:39:19;3.92;;;1.38;;
41635;SDS011;27623;51.966;4.602;2022-10-16T02:41:45;3.38;;;1.10;;
41635;SDS011;27623;51.966;4.602;2022-10-16T02:44:10;3.90;;;1.45;;
41635;SDS011;27623;51.966;4.602;2022-10-16T02:46:36;3.08;;;1.30;;
41635;SDS011;27623;51.966;4.602;2022-10-16T02:49:02;4.05;;;1.48;;
41635;SDS011;27623;51.966;4.602;2022-10-16T02:51:27;4.88;;;1.42;;
41635;SDS011;27623;51.966;4.602;2022-10-16T02:53:53;5.70;;;1.58;;
41635;SDS011;27623;51.966;4.602;2022-10-16T02:56:18;6.20;;;1.48;;
41635;SDS011;27623;51.966;4.602;2022-10-16T02:58:46;2.55;;;1.13;;
41635;SDS011;27623;51.966;4.602;2022-10-16T03:01:12;5.82;;;1.10;;
41635;SDS011;27623;51.966;4.602;2022-10-16T03:03:39;5.72;;;1.40;;
41635;SDS011;27623;51.966;4.602;2022-10-16T03:06:04;4.22;;;1.42;;
41635;SDS011;27623;51.966;4.602;2022-10-16T03:08:30;6.85;;;1.15;;
41635;SDS011;27623;51.966;4.602;2022-10-16T03:10:56;3.15;;;1.40;;
41635;SDS011;27623;51.966;4.602;2022-10-16T03:13:21;3.63;;;1.38;;
41635;SDS011;27623;51.966;4.602;2022-10-16T03:15:47;4.47;;;1.50;;
41635;SDS011;27623;51.966;4.602;2022-10-16T03:18:12;3.47;;;1.50;;
41635;SDS011;27623;51.966;4.602;2022-10-16T03:20:39;4.80;;;1.63;;
41635;SDS011;27623;51.966;4.602;2022-10-16T03:23:05;7.95;;;1.65;;
41635;SDS011;27623;51.966;4.602;2022-10-16T03:25:31;5.57;;;1.30;;
41635;SDS011;27623;51.966;4.602;2022-10-16T03:28:00;3.95;;;1.45;;
41635;SDS011;27623;51.966;4.602;2022-10-16T03:30:28;4.65;;;1.60;;
41635;SDS011;27623;51.966;4.602;2022-10-16T03:32:53;8.85;;;1.45;;
41635;SDS011;27623;51.966;4.602;2022-10-16T03:35:20;2.88;;;1.30;;
41635;SDS011;27623;51.966;4.602;2022-10-16T03:37:46;2.92;;;1.30;;
41635;SDS011;27623;51.966;4.602;2022-10-16T03:40:13;2.80;;;1.20;;
41635;SDS011;27623;51.966;4.602;2022-10-16T03:42:38;2.63;;;1.13;;
41635;SDS011;27623;51.966;4.602;2022-10-16T03:45:04;4.32;;;1.25;;
41635;SDS011;27623;51.966;4.602;2022-10-16T03:47:30;3.15;;;1.27;;
41635;SDS011;27623;51.966;4.602;2022-10-16T03:49:57;2.83;;;1.20;;
41635;SDS011;27623;51.966;4.602;2022-10-16T03:52:23;3.80;;;1.33;;
41635;SDS011;27623;51.966;4.602;2022-10-16T03:54:49;5.50;;;1.55;;
41635;SDS011;27623;51.966;4.602;2022-10-16T03:57:15;5.63;;;1.42;;
41635;SDS011;27623;51.966;4.602;2022-10-16T03:59:40;5.60;;;1.20;;
41635;SDS011;27623;51.966;4.602;2022-10-16T04:02:06;5.97;;;1.75;;
41635;SDS011;27623;51.966;4.602;2022-10-16T04:04:31;2.35;;;1.10;;
41635;SDS011;27623;51.966;4.602;2022-10-16T04:06:57;4.25;;;1.30;;
41635;SDS011;27623;51.966;4.602;2022-10-16T04:09:22;4.45;;;1.20;;
41635;SDS011;27623;51.966;4.602;2022-10-16T04:11:47;5.72;;;1.17;;
41635;SDS011;27623;51.966;4.602;2022-10-16T04:14:13;2.50;;;1.23;;
41635;SDS011;27623;51.966;4.602;2022-10-16T04:16:39;2.85;;;0.98;;
41635;SDS011;27623;51.966;4.602;2022-10-16T04:19:04;3.13;;;1.33;;
41635;SDS011;27623;51.966;4.602;2022-10-16T04:21:30;3.22;;;1.90;;
41635;SDS011;27623;51.966;4.602;2022-10-16T04:23:55;3.03;;;1.35;;
41635;SDS011;27623;51.966;4.602;2022-10-16T04:26:21;5.07;;;1.27;;
41635;SDS011;27623;51.966;4.602;2022-10-16T04:28:46;2.42;;;1.20;;
41635;SDS011;27623;51.966;4.602;2022-10-16T04:31:12;4.72;;;1.17;;
41635;SDS011;27623;51.966;4.602;2022-10-16T04:33:37;8.18;;;1.60;;
41635;SDS011;27623;51.966;4.602;2022-10-16T04:36:05;3.40;;;1.45;;
41635;SDS011;27623;51.966;4.602;2022-10-16T04:38:30;5.45;;;1.30;;
41635;SDS011;27623;51.966;4.602;2022-10-16T04:40:58;4.95;;;1.42;;
41635;SDS011;27623;51.966;4.602;2022-10-16T04:43:24;2.83;;;1.30;;
41635;SDS011;27623;51.966;4.602;2022-10-16T04:45:51;4.95;;;1.38;;
41635;SDS011;27623;51.966;4.602;2022-10-16T04:48:17;4.32;;;1.30;;
41635;SDS011;27623;51.966;4.602;2022-10-16T04:50:43;6.28;;;1.30;;
41635;SDS011;27623;51.966;4.602;2022-10-16T04:53:08;6.00;;;1.55;;
41635;SDS011;27623;51.966;4.602;2022-10-16T04:55:34;5.57;;;1.40;;
41635;SDS011;27623;51.966;4.602;2022-10-16T04:58:00;4.13;;;1.13;;
41635;SDS011;27623;51.966;4.602;2022-10-16T05:00:25;4.90;;;1.40;;
41635;SDS011;27623;51.966;4.602;2022-10-16T05:02:51;3.85;;;1.20;;
41635;SDS011;27623;51.966;4.602;2022-10-16T05:05:16;6.25;;;1.50;;
41635;SDS011;27623;51.966;4.602;2022-10-16T05:07:44;5.45;;;1.20;;
41635;SDS011;27623;51.966;4.602;2022-10-16T05:10:10;7.15;;;1.80;;
41635;SDS011;27623;51.966;4.602;2022-10-16T05:12:36;7.15;;;1.30;;
41635;SDS011;27623;51.966;4.602;2022-10-16T05:15:02;2.63;;;1.00;;
41635;SDS011;27623;51.966;4.602;2022-10-16T05:17:28;3.30;;;1.20;;
41635;SDS011;27623;51.966;4.602;2022-10-16T05:19:53;4.53;;;1.30;;
41635;SDS011;27623;51.966;4.602;2022-10-16T05:22:19;4.55;;;1.25;;
41635;SDS011;27623;51.966;4.602;2022-10-16T05:24:44;5.03;;;1.35;;
41635;SDS011;27623;51.966;4.602;2022-10-16T05:27:10;2.80;;;1.10;;
41635;SDS011;27623;51.966;4.602;2022-10-16T05:29:36;3.63;;;1.20;;
41635;SDS011;27623;51.966;4.602;2022-10-16T05:32:02;5.90;;;1.33;;
41635;SDS011;27623;51.966;4.602;2022-10-16T05:34:28;5.63;;;1.25;;
41635;SDS011;27623;51.966;4.602;2022-10-16T05:36:54;5.00;;;1.40;;
41635;SDS011;27623;51.966;4.602;2022-10-16T05:39:20;4.43;;;1.20;;
41635;SDS011;27623;51.966;4.602;2022-10-16T05:41:45;4.60;;;1.67;;
41635;SDS011;27623;51.966;4.602;2022-10-16T05:44:11;5.13;;;1.38;;
41635;SDS011;27623;51.966;4.602;2022-10-16T05:46:36;3.25;;;1.10;;
41635;SDS011;27623;51.966;4.602;2022-10-16T05:49:02;5.03;;;1.23;;
41635;SDS011;27623;51.966;4.602;2022-10-16T05:51:28;6.47;;;1.40;;
41635;SDS011;27623;51.966;4.602;2022-10-16T05:53:53;2.35;;;1.02;;
41635;SDS011;27623;51.966;4.602;2022-10-16T05:56:19;4.30;;;1.23;;
41635;SDS011;27623;51.966;4.602;2022-10-16T05:58:45;4.88;;;1.15;;
41635;SDS011;27623;51.966;4.602;2022-10-16T06:01:12;3.83;;;1.23;;
41635;SDS011;27623;51.966;4.602;2022-10-16T06:03:40;9.13;;;1.55;;
41635;SDS011;27623;51.966;4.602;2022-10-16T06:06:16;4.28;;;1.15;;
41635;SDS011;27623;51.966;4.602;2022-10-16T06:08:43;3.75;;;1.25;;
41635;SDS011;27623;51.966;4.602;2022-10-16T06:11:11;5.63;;;1.17;;
41635;SDS011;27623;51.966;4.602;2022-10-16T06:13:39;4.35;;;1.00;;
41635;SDS011;27623;51.966;4.602;2022-10-16T06:16:09;2.58;;;1.10;;
41635;SDS011;27623;51.966;4.602;2022-10-16T06:18:38;3.20;;;0.98;;
41635;SDS011;27623;51.966;4.602;2022-10-16T06:21:10;4.03;;;1.10;;
41635;SDS011;27623;51.966;4.602;2022-10-16T06:23:38;5.70;;;0.88;;
41635;SDS011;27623;51.966;4.602;2022-10-16T06:26:07;4.38;;;0.93;;
41635;SDS011;27623;51.966;4.602;2022-10-16T06:28:34;4.25;;;1.00;;
41635;SDS011;27623;51.966;4.602;2022-10-16T06:31:00;5.40;;;1.00;;
41635;SDS011;27623;51.966;4.602;2022-10-16T06:33:27;2.80;;;0.63;;
41635;SDS011;27623;51.966;4.602;2022-10-16T06:35:52;6.63;;;0.95;;
41635;SDS011;27623;51.966;4.602;2022-10-16T06:38:18;5.53;;;0.73;;
41635;SDS011;27623;51.966;4.602;2022-10-16T06:40:43;3.10;;;0.82;;
41635;SDS011;27623;51.966;4.602;2022-10-16T06:43:08;5.45;;;1.25;;
41635;SDS011;27623;51.966;4.602;2022-10-16T06:45:34;4.38;;;0.90;;
41635;SDS011;27623;51.966;4.602;2022-10-16T06:47:59;5.88;;;1.27;;
41635;SDS011;27623;51.966;4.602;2022-10-16T06:50:25;7.22;;;1.00;;
41635;SDS011;27623;51.966;4.602;2022-10-16T06:52:50;3.28;;;0.85;;
41635;SDS011;27623;51.966;4.602;2022-10-16T06:55:16;6.15;;;1.13;;
41635;SDS011;27623;51.966;4.602;2022-10-16T06:57:43;5.40;;;1.00;;
41635;SDS011;27623;51.966;4.602;2022-10-16T07:00:11;7.13;;;1.42;;
41635;SDS011;27623;51.966;4.602;2022-10-16T07:02:37;2.53;;;0.95;;
41635;SDS011;27623;51.966;4.602;2022-10-16T07:05:03;2.95;;;0.80;;
41635;SDS011;27623;51.966;4.602;2022-10-16T07:07:29;5.00;;;1.10;;
41635;SDS011;27623;51.966;4.602;2022-10-16T07:09:54;4.65;;;1.05;;
41635;SDS011;27623;51.966;4.602;2022-10-16T07:12:19;3.97;;;1.05;;
41635;SDS011;27623;51.966;4.602;2022-10-16T07:14:45;7.00;;;1.33;;
41635;SDS011;27623;51.966;4.602;2022-10-16T07:17:13;3.97;;;0.95;;
41635;SDS011;27623;51.966;4.602;2022-10-16T07:19:38;6.35;;;1.30;;
41635;SDS011;27623;51.966;4.602;2022-10-16T07:22:04;4.32;;;1.10;;
41635;SDS011;27623;51.966;4.602;2022-10-16T07:24:30;5.45;;;1.70;;
41635;SDS011;27623;51.966;4.602;2022-10-16T07:26:55;5.00;;;1.20;;
41635;SDS011;27623;51.966;4.602;2022-10-16T07:29:21;4.65;;;1.50;;
41635;SDS011;27623;51.966;4.602;2022-10-16T07:31:47;5.53;;;1.70;;
41635;SDS011;27623;51.966;4.602;2022-10-16T07:34:13;8.85;;;1.20;;
41635;SDS011;27623;51.966;4.602;2022-10-16T07:36:40;6.93;;;1.67;;
41635;SDS011;27623;51.966;4.602;2022-10-16T07:39:05;4.13;;;1.92;;
41635;SDS011;27623;51.966;4.602;2022-10-16T07:41:31;3.22;;;1.13;;
41635;SDS011;27623;51.966;4.602;2022-10-16T07:43:58;3.72;;;1.10;;
41635;SDS011;27623;51.966;4.602;2022-10-16T07:46:25;8.15;;;1.20;;
41635;SDS011;27623;51.966;4.602;2022-10-16T07:48:51;6.95;;;1.30;;
41635;SDS011;27623;51.966;4.602;2022-10-16T07:51:18;3.72;;;1.23;;
41635;SDS011;27623;51.966;4.602;2022-10-16T07:53:45;2.92;;;0.85;;
41635;SDS011;27623;51.966;4.602;2022-10-16T07:56:11;6.00;;;1.60;;
41635;SDS011;27623;51.966;4.602;2022-10-16T07:58:37;3.88;;;0.85;;
41635;SDS011;27623;51.966;4.602;2022-10-16T08:01:04;6.35;;;1.20;;
41635;SDS011;27623;51.966;4.602;2022-10-16T08:03:31;6.65;;;1.15;;
41635;SDS011;27623;51.966;4.602;2022-10-16T08:05:57;5.30;;;1.02;;
41635;SDS011;27623;51.966;4.602;2022-10-16T08:08:25;7.50;;;1.42;;
41635;SDS011;27623;51.966;4.602;2022-10-16T08:10:51;4.60;;;1.40;;
41635;SDS011;27623;51.966;4.602;2022-10-16T08:13:17;4.45;;;1.02;;
41635;SDS011;27623;51.966;4.602;2022-10-16T08:15:42;9.02;;;1.45;;
41635;SDS011;27623;51.966;4.602;2022-10-16T08:18:09;4.57;;;2.13;;
41635;SDS011;27623;51.966;4.602;2022-10-16T08:20:38;6.65;;;1.50;;
41635;SDS011;27623;51.966;4.602;2022-10-16T08:23:06;7.25;;;1.40;;
41635;SDS011;27623;51.966;4.602;2022-10-16T08:25:34;9.23;;;1.30;;
41635;SDS011;27623;51.966;4.602;2022-10-16T08:28:00;7.03;;;1.42;;
41635;SDS011;27623;51.966;4.602;2022-10-16T08:30:27;7.82;;;1.50;;
41635;SDS011;27623;51.966;4.602;2022-10-16T08:32:53;5.32;;;1.30;;
41635;SDS011;27623;51.966;4.602;2022-10-16T08:35:18;9.00;;;1.13;;
41635;SDS011;27623;51.966;4.602;2022-10-16T08:37:44;7.95;;;2.55;;
41635;SDS011;27623;51.966;4.602;2022-10-16T08:48:56;6.07;;;1.23;;
41635;SDS011;27623;51.966;4.602;2022-10-16T08:51:24;5.35;;;1.20;;
41635;SDS011;27623;51.966;4.602;2022-10-16T08:53:56;7.47;;;1.17;;
41635;SDS011;27623;51.966;4.602;2022-10-16T08:56:23;9.32;;;1.25;;
41635;SDS011;27623;51.966;4.602;2022-10-16T08:58:50;7.68;;;1.40;;
41635;SDS011;27623;51.966;4.602;2022-10-16T09:01:17;12.02;;;2.38;;
41635;SDS011;27623;51.966;4.602;2022-10-16T09:17:37;6.70;;;1.65;;
41635;SDS011;27623;51.966;4.602;2022-10-16T09:25:28;10.95;;;3.25;;
41635;SDS011;27623;51.966;4.602;2022-10-16T09:27:55;8.63;;;1.08;;
41635;SDS011;27623;51.966;4.602;2022-10-16T09:30:21;11.50;;;2.17;;
41635;SDS011;27623;51.966;4.602;2022-10-16T09:32:48;12.30;;;1.48;;
41635;SDS011;27623;51.966;4.602;2022-10-16T09:35:18;6.00;;;1.45;;
41635;SDS011;27623;51.966;4.602;2022-10-16T09:37:47;6.28;;;1.60;;
41635;SDS011;27623;51.966;4.602;2022-10-16T09:40:30;9.75;;;2.55;;
41635;SDS011;27623;51.966;4.602;2022-10-16T09:43:17;5.35;;;1.25;;
41635;SDS011;27623;51.966;4.602;2022-10-16T09:48:23;8.80;;;1.77;;
41635;SDS011;27623;51.966;4.602;2022-10-16T09:50:59;10.38;;;1.75;;
41635;SDS011;27623;51.966;4.602;2022-10-16T09:56:37;17.13;;;1.90;;
41635;SDS011;27623;51.966;4.602;2022-10-16T09:59:13;11.50;;;2.08;;
41635;SDS011;27623;51.966;4.602;2022-10-16T10:01:41;13.07;;;1.88;;
41635;SDS011;27623;51.966;4.602;2022-10-16T10:04:11;10.73;;;2.08;;
41635;SDS011;27623;51.966;4.602;2022-10-16T10:06:40;10.63;;;1.58;;
41635;SDS011;27623;51.966;4.602;2022-10-16T10:12:00;8.05;;;1.70;;
41635;SDS011;27623;51.966;4.602;2022-10-16T10:19:36;11.27;;;1.67;;
41635;SDS011;27623;51.966;4.602;2022-10-16T10:24:55;15.43;;;1.85;;
41635;SDS011;27623;51.966;4.602;2022-10-16T10:27:21;8.90;;;1.63;;
41635;SDS011;27623;51.966;4.602;2022-10-16T10:33:23;11.63;;;2.03;;
41635;SDS011;27623;51.966;4.602;2022-10-16T10:38:31;11.25;;;1.75;;
41635;SDS011;27623;51.966;4.602;2022-10-16T10:44:06;8.10;;;1.30;;
41635;SDS011;27623;51.966;4.602;2022-10-16T10:47:01;5.65;;;1.20;;
41635;SDS011;27623;51.966;4.602;2022-10-16T10:54:36;7.38;;;1.30;;
41635;SDS011;27623;51.966;4.602;2022-10-16T10:57:08;8.30;;;1.88;;
41635;SDS011;27623;51.966;4.602;2022-10-16T10:59:58;9.30;;;1.55;;
41635;SDS011;27623;51.966;4.602;2022-10-16T11:08:17;9.80;;;1.38;;
41635;SDS011;27623;51.966;4.602;2022-10-16T11:10:54;9.20;;;2.22;;
41635;SDS011;27623;51.966;4.602;2022-10-16T11:13:26;7.30;;;1.40;;
41635;SDS011;27623;51.966;4.602;2022-10-16T11:15:56;11.30;;;1.50;;
41635;SDS011;27623;51.966;4.602;2022-10-16T11:21:10;11.10;;;1.43;;
41635;SDS011;27623;51.966;4.602;2022-10-16T11:23:48;8.82;;;1.73;;
41635;SDS011;27623;51.966;4.602;2022-10-16T11:26:22;6.32;;;1.23;;
41635;SDS011;27623;51.966;4.602;2022-10-16T11:28:53;9.02;;;1.40;;
41635;SDS011;27623;51.966;4.602;2022-10-16T11:31:23;6.47;;;1.58;;
41635;SDS011;27623;51.966;4.602;2022-10-16T11:33:58;7.18;;;1.20;;
41635;SDS011;27623;51.966;4.602;2022-10-16T11:39:44;4.60;;;0.93;;
41635;SDS011;27623;51.966;4.602;2022-10-16T11:42:13;8.40;;;1.35;;
41635;SDS011;27623;51.966;4.602;2022-10-16T11:47:36;12.50;;;1.60;;
41635;SDS011;27623;51.966;4.602;2022-10-16T11:55:28;9.95;;;1.95;;
41635;SDS011;27623;51.966;4.602;2022-10-16T11:58:01;12.38;;;1.27;;
41635;SDS011;27623;51.966;4.602;2022-10-16T12:00:40;9.65;;;2.17;;
41635;SDS011;27623;51.966;4.602;2022-10-16T12:08:24;8.63;;;1.30;;
41635;SDS011;27623;51.966;4.602;2022-10-16T12:10:50;9.20;;;2.35;;
41635;SDS011;27623;51.966;4.602;2022-10-16T12:13:35;8.75;;;1.45;;
41635;SDS011;27623;51.966;4.602;2022-10-16T12:16:06;17.02;;;1.67;;
41635;SDS011;27623;51.966;4.602;2022-10-16T12:18:41;9.80;;;1.85;;
41635;SDS011;27623;51.966;4.602;2022-10-16T12:21:09;9.13;;;1.60;;
41635;SDS011;27623;51.966;4.602;2022-10-16T12:23:51;7.68;;;1.13;;
41635;SDS011;27623;51.966;4.602;2022-10-16T12:26:31;7.00;;;1.13;;
41635;SDS011;27623;51.966;4.602;2022-10-16T12:29:17;4.43;;;1.33;;
41635;SDS011;27623;51.966;4.602;2022-10-16T12:31:53;11.57;;;1.50;;
41635;SDS011;27623;51.966;4.602;2022-10-16T12:34:29;6.63;;;1.20;;
41635;SDS011;27623;51.966;4.602;2022-10-16T12:39:43;8.02;;;1.75;;
41635;SDS011;27623;51.966;4.602;2022-10-16T12:42:20;9.98;;;0.93;;
41635;SDS011;27623;51.966;4.602;2022-10-16T12:44:46;9.95;;;2.20;;
41635;SDS011;27623;51.966;4.602;2022-10-16T12:49:56;7.90;;;1.67;;
41635;SDS011;27623;51.966;4.602;2022-10-16T12:52:24;7.38;;;1.13;;
41635;SDS011;27623;51.966;4.602;2022-10-16T12:54:51;13.32;;;1.20;;
41635;SDS011;27623;51.966;4.602;2022-10-16T13:02:59;8.13;;;1.33;;
41635;SDS011;27623;51.966;4.602;2022-10-16T13:05:54;7.90;;;1.40;;
41635;SDS011;27623;51.966;4.602;2022-10-16T13:28:03;8.07;;;1.58;;
41635;SDS011;27623;51.966;4.602;2022-10-16T13:30:32;8.93;;;1.60;;
41635;SDS011;27623;51.966;4.602;2022-10-16T13:35:51;6.10;;;1.50;;
41635;SDS011;27623;51.966;4.602;2022-10-16T13:38:22;12.68;;;1.63;;
41635;SDS011;27623;51.966;4.602;2022-10-16T13:40:57;10.15;;;1.55;;
41635;SDS011;27623;51.966;4.602;2022-10-16T13:43:25;8.32;;;1.83;;
41635;SDS011;27623;51.966;4.602;2022-10-16T13:48:21;10.40;;;1.60;;
41635;SDS011;27623;51.966;4.602;2022-10-16T13:50:46;11.75;;;2.15;;
41635;SDS011;27623;51.966;4.602;2022-10-16T13:53:25;12.68;;;2.38;;
41635;SDS011;27623;51.966;4.602;2022-10-16T13:55:51;8.93;;;1.40;;
41635;SDS011;27623;51.966;4.602;2022-10-16T13:58:16;8.00;;;1.75;;
41635;SDS011;27623;51.966;4.602;2022-10-16T14:01:05;9.30;;;1.10;;
41635;SDS011;27623;51.966;4.602;2022-10-16T14:03:41;8.75;;;1.35;;
41635;SDS011;27623;51.966;4.602;2022-10-16T14:06:11;8.32;;;1.50;;
41635;SDS011;27623;51.966;4.602;2022-10-16T14:08:42;9.02;;;1.80;;
41635;SDS011;27623;51.966;4.602;2022-10-16T14:11:09;6.90;;;1.42;;
41635;SDS011;27623;51.966;4.602;2022-10-16T14:13:45;11.20;;;1.52;;
41635;SDS011;27623;51.966;4.602;2022-10-16T14:16:28;8.90;;;1.23;;
41635;SDS011;27623;51.966;4.602;2022-10-16T14:19:04;8.23;;;1.52;;
41635;SDS011;27623;51.966;4.602;2022-10-16T14:21:35;9.57;;;1.48;;
41635;SDS011;27623;51.966;4.602;2022-10-16T14:24:12;12.27;;;2.42;;
41635;SDS011;27623;51.966;4.602;2022-10-16T14:26:44;10.02;;;1.15;;
41635;SDS011;27623;51.966;4.602;2022-10-16T14:29:11;16.02;;;3.00;;
41635;SDS011;27623;51.966;4.602;2022-10-16T14:31:38;9.95;;;1.38;;
41635;SDS011;27623;51.966;4.602;2022-10-16T14:34:21;9.40;;;1.92;;
41635;SDS011;27623;51.966;4.602;2022-10-16T14:36:49;8.93;;;1.58;;
41635;SDS011;27623;51.966;4.602;2022-10-16T14:39:19;10.02;;;2.20;;
41635;SDS011;27623;51.966;4.602;2022-10-16T14:41:49;10.87;;;1.83;;
41635;SDS011;27623;51.966;4.602;2022-10-16T14:44:19;10.95;;;2.05;;
41635;SDS011;27623;51.966;4.602;2022-10-16T14:46:51;7.78;;;1.50;;
41635;SDS011;27623;51.966;4.602;2022-10-16T14:49:17;10.50;;;1.45;;
41635;SDS011;27623;51.966;4.602;2022-10-16T14:51:45;12.05;;;4.13;;
41635;SDS011;27623;51.966;4.602;2022-10-16T14:54:11;9.18;;;1.77;;
41635;SDS011;27623;51.966;4.602;2022-10-16T14:56:42;17.38;;;3.50;;
41635;SDS011;27623;51.966;4.602;2022-10-16T14:59:14;15.38;;;1.63;;
41635;SDS011;27623;51.966;4.602;2022-10-16T15:01:44;8.70;;;1.25;;
41635;SDS011;27623;51.966;4.602;2022-10-16T15:04:11;15.70;;;1.90;;
41635;SDS011;27623;51.966;4.602;2022-10-16T15:06:37;21.13;;;4.13;;
41635;SDS011;27623;51.966;4.602;2022-10-16T15:09:03;10.00;;;1.52;;
41635;SDS011;27623;51.966;4.602;2022-10-16T15:11:28;6.18;;;1.15;;
41635;SDS011;27623;51.966;4.602;2022-10-16T15:13:57;10.85;;;1.67;;
41635;SDS011;27623;51.966;4.602;2022-10-16T15:16:22;14.43;;;2.05;;
41635;SDS011;27623;51.966;4.602;2022-10-16T15:18:50;11.18;;;1.25;;
41635;SDS011;27623;51.966;4.602;2022-10-16T15:21:22;10.55;;;1.80;;
41635;SDS011;27623;51.966;4.602;2022-10-16T15:23:51;8.15;;;1.60;;
41635;SDS011;27623;51.966;4.602;2022-10-16T15:26:17;10.40;;;2.13;;
41635;SDS011;27623;51.966;4.602;2022-10-16T15:28:42;9.55;;;1.50;;
41635;SDS011;27623;51.966;4.602;2022-10-16T15:31:08;9.70;;;1.80;;
41635;SDS011;27623;51.966;4.602;2022-10-16T15:33:34;11.88;;;2.17;;
41635;SDS011;27623;51.966;4.602;2022-10-16T15:36:00;8.50;;;1.30;;
41635;SDS011;27623;51.966;4.602;2022-10-16T15:38:28;7.97;;;1.40;;
41635;SDS011;27623;51.966;4.602;2022-10-16T15:40:54;16.15;;;2.17;;
41635;SDS011;27623;51.966;4.602;2022-10-16T15:43:21;10.20;;;1.38;;
41635;SDS011;27623;51.966;4.602;2022-10-16T15:45:52;7.35;;;1.48;;
41635;SDS011;27623;51.966;4.602;2022-10-16T15:48:25;9.82;;;1.30;;
41635;SDS011;27623;51.966;4.602;2022-10-16T15:50:50;8.93;;;1.42;;
41635;SDS011;27623;51.966;4.602;2022-10-16T15:53:16;16.38;;;1.85;;
41635;SDS011;27623;51.966;4.602;2022-10-16T15:55:41;10.30;;;1.60;;
41635;SDS011;27623;51.966;4.602;2022-10-16T15:58:07;9.10;;;1.55;;
41635;SDS011;27623;51.966;4.602;2022-10-16T16:00:32;7.78;;;1.80;;
41635;SDS011;27623;51.966;4.602;2022-10-16T16:02:58;14.75;;;2.17;;
41635;SDS011;27623;51.966;4.602;2022-10-16T16:05:24;9.93;;;1.70;;
41635;SDS011;27623;51.966;4.602;2022-10-16T16:07:49;15.07;;;2.22;;
41635;SDS011;27623;51.966;4.602;2022-10-16T16:10:17;6.32;;;1.52;;
41635;SDS011;27623;51.966;4.602;2022-10-16T16:12:45;8.32;;;1.90;;
41635;SDS011;27623;51.966;4.602;2022-10-16T16:15:16;10.18;;;1.92;;
41635;SDS011;27623;51.966;4.602;2022-10-16T16:17:41;12.43;;;2.17;;
41635;SDS011;27623;51.966;4.602;2022-10-16T16:20:07;11.52;;;2.72;;
41635;SDS011;27623;51.966;4.602;2022-10-16T16:22:38;9.57;;;2.30;;
41635;SDS011;27623;51.966;4.602;2022-10-16T16:25:03;14.23;;;4.13;;
41635;SDS011;27623;51.966;4.602;2022-10-16T16:27:29;14.38;;;3.28;;
41635;SDS011;27623;51.966;4.602;2022-10-16T16:29:58;11.13;;;3.05;;
41635;SDS011;27623;51.966;4.602;2022-10-16T16:32:24;14.38;;;2.95;;
41635;SDS011;27623;51.966;4.602;2022-10-16T16:34:50;9.15;;;2.80;;
41635;SDS011;27623;51.966;4.602;2022-10-16T16:37:18;11.15;;;2.92;;
41635;SDS011;27623;51.966;4.602;2022-10-16T16:39:44;13.20;;;2.92;;
41635;SDS011;27623;51.966;4.602;2022-10-16T16:42:10;15.07;;;2.47;;
41635;SDS011;27623;51.966;4.602;2022-10-16T16:44:35;10.48;;;2.92;;
41635;SDS011;27623;51.966;4.602;2022-10-16T16:47:01;9.20;;;2.55;;
41635;SDS011;27623;51.966;4.602;2022-10-16T16:49:28;7.70;;;2.97;;
41635;SDS011;27623;51.966;4.602;2022-10-16T16:51:55;8.52;;;2.80;;
41635;SDS011;27623;51.966;4.602;2022-10-16T16:54:23;8.75;;;2.15;;
41635;SDS011;27623;51.966;4.602;2022-10-16T16:56:48;12.57;;;2.42;;
41635;SDS011;27623;51.966;4.602;2022-10-16T16:59:16;11.65;;;2.20;;
41635;SDS011;27623;51.966;4.602;2022-10-16T17:01:44;13.10;;;3.28;;
41635;SDS011;27623;51.966;4.602;2022-10-16T17:04:10;8.95;;;2.47;;
41635;SDS011;27623;51.966;4.602;2022-10-16T17:06:36;12.20;;;4.53;;
41635;SDS011;27623;51.966;4.602;2022-10-16T17:09:05;14.65;;;3.75;;
41635;SDS011;27623;51.966;4.602;2022-10-16T17:11:32;11.07;;;2.97;;